CDT,Max TemperatureF,Mean TemperatureF,Min TemperatureF,Max Dew PointF,MeanDew PointF,Min DewpointF,Max Humidity, Mean Humidity, Min Humidity, Max Sea Level PressureIn, Mean Sea Level PressureIn, Min Sea Level PressureIn, Max VisibilityMiles, Mean VisibilityMiles, Min VisibilityMiles, Max Wind SpeedMPH, Mean Wind SpeedMPH, Max Gust SpeedMPH,PrecipitationIn, CloudCover, Events, WindDirDegrees
2012-9-1,79,60,40,59,48,40,100,68,35,30.24,30.15,30.02,10,10,10,15,5,20,0.00,0,,134
2012-9-2,78,67,55,62,55,48,97,74,50,30.03,29.88,29.76,10,10,10,18,6,29,0.01,2,Rain,142
2012-9-3,84,64,44,61,50,39,100,60,20,29.89,29.86,29.83,10,9,2,14,4,21,0.00,0,,247
2012-9-4,82,65,47,60,52,46,93,66,39,29.89,29.81,29.70,10,10,10,12,3,15,T,3,Rain,120
2012-9-5,72,59,46,54,48,45,93,69,45,29.83,29.78,29.73,10,10,10,18,7,26,0.00,3,,270
2012-9-6,66,54,41,55,49,41,100,76,52,29.94,29.90,29.84,10,10,5,14,4,18,0.08,5,Rain,268
2012-9-7,61,52,43,50,46,42,100,81,62,30.03,29.99,29.94,10,10,10,20,8,24,T,6,Rain,299
2012-9-8,62,50,38,54,48,39,100,84,67,30.08,29.89,29.76,10,9,2,23,9,30,0.13,5,Rain,296
2012-9-9,67,51,34,51,45,35,100,74,48,30.20,30.14,30.04,10,8,0,9,3,17,0.00,2,Fog,318
2012-9-10,80,62,44,51,48,43,93,64,35,30.03,29.82,29.68,10,10,10,15,7,30,0.00,0,,164
2012-9-11,82,67,52,58,51,40,83,63,42,29.86,29.69,29.61,10,10,10,18,7,23,0.00,0,,192
2012-9-12,67,57,47,40,31,24,65,43,20,30.13,29.98,29.86,10,10,10,24,10,33,0.00,0,,248
2012-9-13,63,48,32,41,37,31,100,65,30,30.36,30.26,30.13,10,10,10,22,8,28,0.00,3,,285
2012-9-14,65,47,28,45,34,27,100,66,31,30.40,30.34,30.28,10,7,0,10,2,13,0.00,2,Fog,70
2012-9-15,75,53,30,45,40,30,100,67,33,30.27,30.08,29.89,10,10,10,15,4,20,0.00,0,,145
2012-9-16,68,52,36,48,42,37,100,72,44,30.02,29.95,29.87,10,10,10,17,8,21,0.00,3,,325
2012-9-17,56,43,29,40,34,28,92,68,44,30.06,30.03,30.00,10,10,10,17,6,22,T,5,,333
2012-9-18,58,39,20,35,27,19,92,60,28,30.05,29.97,29.77,10,10,10,13,3,18,T,2,,232
2012-9-19,60,53,46,50,44,34,93,77,61,29.74,29.58,29.47,10,9,2,28,11,38,0.35,8,Rain,268
2012-9-20,56,47,38,46,43,37,100,76,51,29.83,29.77,29.68,10,10,3,22,9,30,0.12,6,Rain,301
2012-9-21,52,43,33,44,37,33,100,86,71,29.93,29.81,29.73,10,7,0,25,9,33,0.15,7,Fog-Rain,290
2012-9-22,51,40,28,40,33,28,92,69,46,30.24,30.16,29.92,10,10,7,22,10,28,0.01,6,,329
2012-9-23,55,38,21,33,29,24,100,68,35,30.30,30.21,30.01,10,10,10,15,6,20,0.00,0,,281
2012-9-24,65,47,28,40,32,28,92,64,36,29.96,29.79,29.68,10,10,10,23,9,31,0.00,1,,291
2012-9-25,53,39,25,41,33,25,100,78,56,30.04,29.97,29.91,10,10,10,13,2,15,T,5,Rain,329
2012-9-26,58,43,27,40,35,27,100,72,43,30.24,30.16,30.04,10,10,10,9,2,13,0.00,3,,340
2012-9-27,68,46,23,41,32,23,100,63,26,30.30,30.23,30.15,10,10,10,9,2,13,0.00,1,,223
2012-9-28,73,53,32,43,37,31,100,64,28,30.19,30.15,30.10,10,10,10,9,1,10,0.00,0,,27
2012-9-29,76,54,31,46,38,30,100,63,25,30.18,30.12,30.03,10,7,0,8,2,12,0.00,1,Fog,115
2012-9-30,79,60,40,44,39,36,83,54,25,30.03,29.91,29.80,10,10,10,12,6,18,0.00,0,,168